Itapiranga, Brazil
Current Conditions -  °F | °C
As of 2:00 AM on Monday 26 Jan 2015 (Local Time) from SBMN Reporting Station
Clear Clear  
Wind Chill: 75°   Ceiling: Unl
Heat Index: 75°   Visibility: 6mi
Dew Point: 72°   Wind: 3mph
Humidity: 89%   Direction: 150°SSE
Pressure: 29.85"   Gusts: NA
Location:  2.75°S, 58.02°W
Report Text: SBMN 260600Z 15003KT CAVOK 24/22 Q1011
Loading
Personal Weather Stations






























Interactive Weather Map New forecast layout! Learn more

10-Day Weather Forecast

Advertisements
Track Severe Weather on mobile